Overview Statistics Trail Chart Weather Telemetry Raw packets
 

This is the latest recevied weather packets stored in our database for station/object SQ9RHX-11. If no packets are shown the sender has not sent any weather packets the latest 10 day(s).

<< 9 10 11 12 13 14 15 >>
Time Temp. Humidity Pressure Rain* Wind** Luminosity Snow
1787992734 22.78° C 67% 1015.9 hPa - - - -
1787990934 20° C 75% 1015.9 hPa - - - -
1787989140 19.44° C 80% 1015.6 hPa - - - -
1787987334 18.89° C 87% 1015.6 hPa - - - -
1787983734 17.78° C 91% 1015.1 hPa - - - -
1787981934 16.67° C 91% 1015 hPa - - - -
1787980134 16.11° C 91% 1015 hPa - - - -
1787978334 16.11° C 91% 1014.9 hPa - - - -
1787976534 16.11° C 90% 1013.9 hPa - - - -
1787974734 16.11° C 90% 1014.1 hPa - - - -
1787972934 16.11° C 89% 1014.3 hPa - - - -
1787971135 16.11° C 89% 1014.2 hPa - - - -
1787969334 16.67° C 89% 1014.5 hPa - - - -
1787967535 17.22° C 87% 1014.6 hPa - - - -
1787965735 17.78° C 86% 1014.2 hPa - - - -
1787963935 18.89° C 84% 1013.5 hPa - - - -
1787962136 18.89° C 82% 1013.1 hPa - - - -
1787960336 19.44° C 75% 1013.3 hPa - - - -
1787958536 20.56° C 67% 1011.7 hPa - - - -
1787956737 21.11° C 65% 1011.8 hPa - - - -
1787954937 21.67° C 60% 1011.8 hPa - - - -
1787953138 22.78° C 56% 1012.3 hPa - - - -
1787951338 22.78° C 56% 1012.3 hPa - - - -
1787949538 23.33° C 55% 1012.8 hPa - - - -
1787947738 23.33° C 54% 1012.6 hPa - - - -

* Rain since midnight (hover to see other rain measurements)
** Current wind speed in m/s (hover to see current wind gust speed)